sensor_id;sensor_type;location;lat;lon;timestamp;pressure;altitude;pressure_sealevel;temperature;humidity
68873;BME280;55907;50.806;12.882;2023-07-02T00:00:33;964.4;;;16.9;94.5
68873;BME280;55907;50.806;12.882;2023-07-02T00:03:34;964.4;;;16.9;95.4
68873;BME280;55907;50.806;12.882;2023-07-02T00:06:36;964.4;;;16.9;95.2
68873;BME280;55907;50.806;12.882;2023-07-02T00:09:37;964.5;;;16.9;95.6
68873;BME280;55907;50.806;12.882;2023-07-02T00:12:39;964.5;;;16.9;95.6
68873;BME280;55907;50.806;12.882;2023-07-02T00:15:40;964.5;;;16.9;95.5
68873;BME280;55907;50.806;12.882;2023-07-02T00:18:42;964.5;;;16.9;95.5
68873;BME280;55907;50.806;12.882;2023-07-02T00:21:43;964.5;;;16.9;95.5
68873;BME280;55907;50.806;12.882;2023-07-02T00:24:45;964.6;;;16.9;95.6
68873;BME280;55907;50.806;12.882;2023-07-02T00:27:46;964.6;;;17.0;95.5
68873;BME280;55907;50.806;12.882;2023-07-02T00:30:47;964.6;;;17.0;95.4
68873;BME280;55907;50.806;12.882;2023-07-02T00:33:50;964.6;;;17.0;95.0
68873;BME280;55907;50.806;12.882;2023-07-02T00:36:50;964.6;;;17.0;95.2
68873;BME280;55907;50.806;12.882;2023-07-02T00:39:52;964.6;;;17.1;94.9
68873;BME280;55907;50.806;12.882;2023-07-02T00:42:53;964.7;;;17.0;96.1
68873;BME280;55907;50.806;12.882;2023-07-02T00:45:55;964.6;;;17.0;96.8
68873;BME280;55907;50.806;12.882;2023-07-02T00:48:56;964.6;;;17.0;97.3
68873;BME280;55907;50.806;12.882;2023-07-02T00:51:58;964.6;;;16.9;98.8
68873;BME280;55907;50.806;12.882;2023-07-02T00:54:59;964.6;;;16.8;99.4
68873;BME280;55907;50.806;12.882;2023-07-02T00:58:01;964.6;;;16.8;100.0
68873;BME280;55907;50.806;12.882;2023-07-02T01:01:02;964.6;;;16.8;100.0
68873;BME280;55907;50.806;12.882;2023-07-02T01:07:05;964.6;;;16.7;100.0
68873;BME280;55907;50.806;12.882;2023-07-02T01:10:07;964.6;;;16.7;100.0
68873;BME280;55907;50.806;12.882;2023-07-02T01:13:12;964.6;;;16.6;100.0
68873;BME280;55907;50.806;12.882;2023-07-02T01:16:10;964.6;;;16.6;100.0
68873;BME280;55907;50.806;12.882;2023-07-02T01:19:13;964.6;;;16.6;100.0
68873;BME280;55907;50.806;12.882;2023-07-02T01:22:12;964.5;;;16.6;100.0
68873;BME280;55907;50.806;12.882;2023-07-02T01:25:14;964.5;;;16.5;100.0
68873;BME280;55907;50.806;12.882;2023-07-02T01:28:15;964.4;;;16.5;100.0
68873;BME280;55907;50.806;12.882;2023-07-02T01:31:17;964.5;;;16.5;100.0
68873;BME280;55907;50.806;12.882;2023-07-02T01:34:18;964.4;;;16.5;100.0
68873;BME280;55907;50.806;12.882;2023-07-02T01:37:20;964.5;;;16.5;100.0
68873;BME280;55907;50.806;12.882;2023-07-02T01:40:21;964.5;;;16.5;100.0
68873;BME280;55907;50.806;12.882;2023-07-02T01:43:22;964.5;;;16.6;100.0
68873;BME280;55907;50.806;12.882;2023-07-02T01:46:24;964.5;;;16.5;100.0
68873;BME280;55907;50.806;12.882;2023-07-02T01:49:25;964.5;;;16.5;100.0
68873;BME280;55907;50.806;12.882;2023-07-02T01:52:27;964.4;;;16.5;100.0
68873;BME280;55907;50.806;12.882;2023-07-02T01:58:30;964.5;;;16.5;100.0
68873;BME280;55907;50.806;12.882;2023-07-02T02:01:31;964.4;;;16.5;100.0
68873;BME280;55907;50.806;12.882;2023-07-02T02:04:33;964.4;;;16.5;100.0
68873;BME280;55907;50.806;12.882;2023-07-02T02:07:34;964.4;;;16.5;100.0
68873;BME280;55907;50.806;12.882;2023-07-02T02:10:36;964.5;;;16.5;100.0
68873;BME280;55907;50.806;12.882;2023-07-02T02:13:37;964.5;;;16.5;100.0
68873;BME280;55907;50.806;12.882;2023-07-02T02:16:39;964.4;;;16.5;100.0
68873;BME280;55907;50.806;12.882;2023-07-02T02:19:40;964.5;;;16.6;100.0
68873;BME280;55907;50.806;12.882;2023-07-02T02:22:41;964.5;;;16.6;100.0
68873;BME280;55907;50.806;12.882;2023-07-02T02:25:43;964.5;;;16.6;100.0
68873;BME280;55907;50.806;12.882;2023-07-02T02:28:44;964.5;;;16.6;100.0
68873;BME280;55907;50.806;12.882;2023-07-02T02:31:46;964.5;;;16.6;100.0
68873;BME280;55907;50.806;12.882;2023-07-02T02:34:47;964.5;;;16.6;100.0
68873;BME280;55907;50.806;12.882;2023-07-02T02:37:49;964.5;;;16.6;100.0
68873;BME280;55907;50.806;12.882;2023-07-02T02:40:50;964.5;;;16.6;100.0
68873;BME280;55907;50.806;12.882;2023-07-02T02:43:52;964.5;;;16.6;100.0
68873;BME280;55907;50.806;12.882;2023-07-02T02:46:53;964.5;;;16.6;100.0
68873;BME280;55907;50.806;12.882;2023-07-02T02:49:55;964.5;;;16.6;100.0
68873;BME280;55907;50.806;12.882;2023-07-02T02:52:56;964.5;;;16.6;100.0
68873;BME280;55907;50.806;12.882;2023-07-02T02:55:57;964.5;;;16.6;100.0
68873;BME280;55907;50.806;12.882;2023-07-02T02:58:59;964.5;;;16.6;100.0
68873;BME280;55907;50.806;12.882;2023-07-02T03:02:00;964.5;;;16.6;100.0
68873;BME280;55907;50.806;12.882;2023-07-02T03:05:02;964.5;;;16.6;100.0
68873;BME280;55907;50.806;12.882;2023-07-02T03:08:03;964.5;;;16.7;100.0
68873;BME280;55907;50.806;12.882;2023-07-02T03:11:05;964.5;;;16.8;100.0
68873;BME280;55907;50.806;12.882;2023-07-02T03:14:06;964.6;;;16.8;100.0
68873;BME280;55907;50.806;12.882;2023-07-02T03:17:07;964.6;;;16.8;100.0
68873;BME280;55907;50.806;12.882;2023-07-02T03:20:09;964.6;;;16.8;100.0
68873;BME280;55907;50.806;12.882;2023-07-02T03:23:10;964.5;;;16.8;100.0
68873;BME280;55907;50.806;12.882;2023-07-02T03:26:12;964.6;;;16.8;100.0
68873;BME280;55907;50.806;12.882;2023-07-02T03:29:13;964.6;;;16.8;100.0
68873;BME280;55907;50.806;12.882;2023-07-02T03:32:15;964.6;;;16.8;100.0
68873;BME280;55907;50.806;12.882;2023-07-02T03:35:16;964.6;;;16.9;98.6
68873;BME280;55907;50.806;12.882;2023-07-02T03:38:18;964.7;;;16.8;99.7
68873;BME280;55907;50.806;12.882;2023-07-02T03:41:19;964.8;;;16.8;98.9
68873;BME280;55907;50.806;12.882;2023-07-02T03:44:21;964.7;;;16.9;99.3
68873;BME280;55907;50.806;12.882;2023-07-02T03:47:22;964.8;;;16.8;100.0
68873;BME280;55907;50.806;12.882;2023-07-02T03:50:23;965.0;;;16.8;100.0
68873;BME280;55907;50.806;12.882;2023-07-02T03:53:25;965.0;;;16.6;93.8
68873;BME280;55907;50.806;12.882;2023-07-02T03:56:26;965.0;;;16.6;91.8
68873;BME280;55907;50.806;12.882;2023-07-02T03:59:28;965.0;;;16.5;92.0
68873;BME280;55907;50.806;12.882;2023-07-02T04:02:29;965.1;;;16.5;92.8
68873;BME280;55907;50.806;12.882;2023-07-02T04:05:31;965.2;;;16.4;93.0
68873;BME280;55907;50.806;12.882;2023-07-02T04:08:32;965.3;;;16.4;93.3
68873;BME280;55907;50.806;12.882;2023-07-02T04:11:34;965.3;;;16.3;94.0
68873;BME280;55907;50.806;12.882;2023-07-02T04:14:35;965.3;;;16.2;95.0
68873;BME280;55907;50.806;12.882;2023-07-02T04:17:36;965.3;;;16.1;96.2
68873;BME280;55907;50.806;12.882;2023-07-02T04:20:38;965.4;;;16.0;96.2
68873;BME280;55907;50.806;12.882;2023-07-02T04:23:39;965.4;;;16.0;97.3
68873;BME280;55907;50.806;12.882;2023-07-02T04:26:41;965.5;;;16.0;97.1
68873;BME280;55907;50.806;12.882;2023-07-02T04:29:42;965.5;;;15.9;98.1
68873;BME280;55907;50.806;12.882;2023-07-02T04:32:44;965.5;;;15.9;98.8
68873;BME280;55907;50.806;12.882;2023-07-02T04:35:45;965.5;;;16.0;98.4
68873;BME280;55907;50.806;12.882;2023-07-02T04:38:47;965.5;;;15.9;98.1
68873;BME280;55907;50.806;12.882;2023-07-02T04:41:48;965.6;;;15.9;98.3
68873;BME280;55907;50.806;12.882;2023-07-02T04:47:51;965.6;;;15.9;99.1
68873;BME280;55907;50.806;12.882;2023-07-02T04:50:52;965.6;;;15.9;99.3
68873;BME280;55907;50.806;12.882;2023-07-02T04:53:54;965.6;;;15.9;100.0
68873;BME280;55907;50.806;12.882;2023-07-02T04:56:55;965.7;;;15.9;99.7
68873;BME280;55907;50.806;12.882;2023-07-02T04:59:57;965.7;;;15.9;99.7
68873;BME280;55907;50.806;12.882;2023-07-02T05:02:58;965.8;;;16.0;99.6
68873;BME280;55907;50.806;12.882;2023-07-02T05:06:00;965.8;;;16.0;99.0
68873;BME280;55907;50.806;12.882;2023-07-02T05:09:01;965.9;;;15.9;98.5
68873;BME280;55907;50.806;12.882;2023-07-02T05:12:03;965.9;;;15.9;99.0
68873;BME280;55907;50.806;12.882;2023-07-02T05:15:05;965.9;;;15.9;98.7
68873;BME280;55907;50.806;12.882;2023-07-02T05:18:05;966.0;;;15.9;98.2
68873;BME280;55907;50.806;12.882;2023-07-02T05:21:07;965.9;;;15.9;97.6
68873;BME280;55907;50.806;12.882;2023-07-02T05:24:08;966.0;;;15.9;96.9
68873;BME280;55907;50.806;12.882;2023-07-02T05:27:10;966.0;;;15.9;96.0
68873;BME280;55907;50.806;12.882;2023-07-02T05:30:12;966.0;;;16.0;95.6
68873;BME280;55907;50.806;12.882;2023-07-02T05:33:13;966.0;;;16.0;95.6
68873;BME280;55907;50.806;12.882;2023-07-02T05:36:15;966.0;;;16.0;94.7
68873;BME280;55907;50.806;12.882;2023-07-02T05:39:16;966.0;;;16.0;94.0
68873;BME280;55907;50.806;12.882;2023-07-02T05:42:17;966.0;;;16.0;93.8
68873;BME280;55907;50.806;12.882;2023-07-02T05:45:18;966.0;;;16.0;93.9
68873;BME280;55907;50.806;12.882;2023-07-02T05:48:20;966.0;;;16.0;94.2
68873;BME280;55907;50.806;12.882;2023-07-02T05:51:22;966.0;;;16.1;92.1
68873;BME280;55907;50.806;12.882;2023-07-02T05:54:23;966.0;;;16.2;92.4
68873;BME280;55907;50.806;12.882;2023-07-02T05:57:24;966.0;;;16.3;91.2
68873;BME280;55907;50.806;12.882;2023-07-02T06:00:26;966.1;;;16.4;90.7
68873;BME280;55907;50.806;12.882;2023-07-02T06:03:27;966.1;;;16.5;90.1
68873;BME280;55907;50.806;12.882;2023-07-02T06:06:29;966.2;;;16.5;89.9
68873;BME280;55907;50.806;12.882;2023-07-02T06:09:30;966.2;;;16.7;89.4
68873;BME280;55907;50.806;12.882;2023-07-02T06:12:31;966.2;;;16.8;89.2
68873;BME280;55907;50.806;12.882;2023-07-02T06:15:33;966.2;;;16.9;89.3
68873;BME280;55907;50.806;12.882;2023-07-02T06:21:36;966.2;;;17.3;87.4
68873;BME280;55907;50.806;12.882;2023-07-02T06:24:37;966.2;;;17.7;85.6
68873;BME280;55907;50.806;12.882;2023-07-02T06:27:39;966.2;;;18.1;83.3
68873;BME280;55907;50.806;12.882;2023-07-02T06:30:40;966.2;;;18.3;82.7
68873;BME280;55907;50.806;12.882;2023-07-02T06:33:41;966.2;;;18.6;80.6
68873;BME280;55907;50.806;12.882;2023-07-02T06:36:43;966.2;;;18.8;79.5
68873;BME280;55907;50.806;12.882;2023-07-02T06:39:44;966.3;;;19.0;79.0
68873;BME280;55907;50.806;12.882;2023-07-02T06:42:46;966.3;;;19.2;79.5
68873;BME280;55907;50.806;12.882;2023-07-02T06:48:49;966.4;;;19.2;79.2
68873;BME280;55907;50.806;12.882;2023-07-02T06:51:50;966.4;;;19.1;78.7
68873;BME280;55907;50.806;12.882;2023-07-02T06:54:52;966.4;;;19.0;78.9
68873;BME280;55907;50.806;12.882;2023-07-02T06:57:53;966.4;;;19.0;78.8
68873;BME280;55907;50.806;12.882;2023-07-02T07:00:54;966.4;;;19.0;79.3
68873;BME280;55907;50.806;12.882;2023-07-02T07:03:56;966.3;;;19.1;79.4
68873;BME280;55907;50.806;12.882;2023-07-02T07:06:57;966.4;;;19.5;76.1
68873;BME280;55907;50.806;12.882;2023-07-02T07:09:59;966.4;;;19.9;75.2
68873;BME280;55907;50.806;12.882;2023-07-02T07:13:00;966.4;;;20.0;74.2
68873;BME280;55907;50.806;12.882;2023-07-02T07:16:02;966.4;;;20.4;73.2
68873;BME280;55907;50.806;12.882;2023-07-02T07:19:03;966.5;;;20.7;69.9
68873;BME280;55907;50.806;12.882;2023-07-02T07:22:04;966.4;;;20.9;68.3
68873;BME280;55907;50.806;12.882;2023-07-02T07:25:07;966.4;;;21.2;68.2
68873;BME280;55907;50.806;12.882;2023-07-02T07:28:07;966.4;;;21.4;67.5
68873;BME280;55907;50.806;12.882;2023-07-02T07:31:08;966.3;;;21.7;66.4
68873;BME280;55907;50.806;12.882;2023-07-02T07:34:10;966.3;;;21.8;63.6
68873;BME280;55907;50.806;12.882;2023-07-02T07:37:11;966.3;;;22.1;62.1
68873;BME280;55907;50.806;12.882;2023-07-02T07:40:13;966.3;;;22.2;62.5
68873;BME280;55907;50.806;12.882;2023-07-02T07:43:14;966.2;;;22.1;60.8
68873;BME280;55907;50.806;12.882;2023-07-02T07:46:15;966.3;;;21.6;64.6
68873;BME280;55907;50.806;12.882;2023-07-02T07:49:17;966.3;;;21.1;64.4
68873;BME280;55907;50.806;12.882;2023-07-02T07:52:18;966.3;;;20.8;65.3
68873;BME280;55907;50.806;12.882;2023-07-02T07:55:20;966.3;;;20.6;65.8
68873;BME280;55907;50.806;12.882;2023-07-02T07:58:22;966.3;;;20.7;65.1
68873;BME280;55907;50.806;12.882;2023-07-02T08:01:22;966.2;;;20.6;64.6
68873;BME280;55907;50.806;12.882;2023-07-02T08:04:24;966.2;;;20.7;61.5
68873;BME280;55907;50.806;12.882;2023-07-02T08:10:27;966.2;;;21.2;59.5
68873;BME280;55907;50.806;12.882;2023-07-02T08:13:28;966.3;;;21.3;57.7
68873;BME280;55907;50.806;12.882;2023-07-02T08:16:29;966.3;;;21.4;58.4
68873;BME280;55907;50.806;12.882;2023-07-02T08:19:31;966.4;;;21.5;58.7
68873;BME280;55907;50.806;12.882;2023-07-02T08:22:32;966.5;;;21.6;57.8
68873;BME280;55907;50.806;12.882;2023-07-02T08:25:34;966.5;;;21.5;57.0
68873;BME280;55907;50.806;12.882;2023-07-02T08:28:35;966.4;;;21.6;54.8
68873;BME280;55907;50.806;12.882;2023-07-02T08:31:36;966.4;;;21.9;55.1
68873;BME280;55907;50.806;12.882;2023-07-02T08:37:39;966.5;;;23.1;52.3
68873;BME280;55907;50.806;12.882;2023-07-02T08:40:40;966.5;;;23.7;49.7
68873;BME280;55907;50.806;12.882;2023-07-02T08:43:42;966.5;;;24.3;45.7
68873;BME280;55907;50.806;12.882;2023-07-02T08:46:43;966.4;;;25.5;43.9
68873;BME280;55907;50.806;12.882;2023-07-02T08:49:45;966.5;;;26.9;40.8
68873;BME280;55907;50.806;12.882;2023-07-02T08:52:46;966.5;;;28.3;37.9
68873;BME280;55907;50.806;12.882;2023-07-02T08:55:47;966.5;;;28.7;35.6
68873;BME280;55907;50.806;12.882;2023-07-02T08:58:48;966.6;;;29.5;35.5
68873;BME280;55907;50.806;12.882;2023-07-02T09:01:51;966.6;;;30.3;33.6
68873;BME280;55907;50.806;12.882;2023-07-02T09:04:58;966.7;;;30.1;33.8
68873;BME280;55907;50.806;12.882;2023-07-02T09:07:52;966.6;;;30.2;33.5
68873;BME280;55907;50.806;12.882;2023-07-02T09:10:54;966.7;;;30.9;32.9
68873;BME280;55907;50.806;12.882;2023-07-02T09:13:55;966.8;;;30.6;31.1
68873;BME280;55907;50.806;12.882;2023-07-02T09:17:05;966.7;;;31.1;30.6
68873;BME280;55907;50.806;12.882;2023-07-02T09:19:59;966.7;;;31.0;29.5
68873;BME280;55907;50.806;12.882;2023-07-02T09:22:59;966.8;;;29.8;28.4
68873;BME280;55907;50.806;12.882;2023-07-02T09:26:00;966.7;;;28.5;30.5
68873;BME280;55907;50.806;12.882;2023-07-02T09:29:02;966.7;;;26.7;34.0
68873;BME280;55907;50.806;12.882;2023-07-02T09:32:05;966.7;;;25.6;35.9
68873;BME280;55907;50.806;12.882;2023-07-02T09:35:05;966.8;;;25.4;38.6
68873;BME280;55907;50.806;12.882;2023-07-02T09:38:06;966.8;;;24.9;39.4
68873;BME280;55907;50.806;12.882;2023-07-02T09:41:07;966.8;;;25.3;39.9
68873;BME280;55907;50.806;12.882;2023-07-02T09:44:09;966.7;;;25.4;39.1
68873;BME280;55907;50.806;12.882;2023-07-02T09:50:13;966.8;;;24.7;40.5
68873;BME280;55907;50.806;12.882;2023-07-02T09:53:13;966.8;;;25.0;40.4
68873;BME280;55907;50.806;12.882;2023-07-02T09:56:14;966.8;;;26.3;38.1
68873;BME280;55907;50.806;12.882;2023-07-02T09:59:15;966.8;;;26.5;37.7
68873;BME280;55907;50.806;12.882;2023-07-02T10:02:17;966.7;;;26.5;35.9
68873;BME280;55907;50.806;12.882;2023-07-02T10:08:20;966.8;;;27.5;35.5
68873;BME280;55907;50.806;12.882;2023-07-02T10:11:33;966.7;;;27.2;36.1
68873;BME280;55907;50.806;12.882;2023-07-02T10:14:22;966.7;;;26.2;37.0
68873;BME280;55907;50.806;12.882;2023-07-02T10:17:25;966.8;;;25.2;40.0
68873;BME280;55907;50.806;12.882;2023-07-02T10:20:33;966.8;;;24.2;41.2
68873;BME280;55907;50.806;12.882;2023-07-02T10:23:34;966.9;;;23.8;42.9
68873;BME280;55907;50.806;12.882;2023-07-02T10:26:28;966.8;;;23.7;43.2
68873;BME280;55907;50.806;12.882;2023-07-02T10:29:29;966.9;;;24.6;42.6
68873;BME280;55907;50.806;12.882;2023-07-02T10:32:32;966.8;;;24.9;40.5
68873;BME280;55907;50.806;12.882;2023-07-02T10:35:32;966.8;;;24.7;42.3
68873;BME280;55907;50.806;12.882;2023-07-02T10:38:33;966.8;;;24.1;43.1
68873;BME280;55907;50.806;12.882;2023-07-02T10:41:35;966.9;;;23.7;44.7
68873;BME280;55907;50.806;12.882;2023-07-02T10:44:47;966.9;;;23.6;44.9
68873;BME280;55907;50.806;12.882;2023-07-02T10:47:39;966.8;;;23.4;44.8
68873;BME280;55907;50.806;12.882;2023-07-02T10:50:39;967.0;;;23.2;45.4
68873;BME280;55907;50.806;12.882;2023-07-02T10:53:40;966.9;;;23.5;45.1
68873;BME280;55907;50.806;12.882;2023-07-02T10:56:42;967.0;;;24.5;43.5
68873;BME280;55907;50.806;12.882;2023-07-02T10:59:43;967.0;;;25.1;43.4
68873;BME280;55907;50.806;12.882;2023-07-02T11:02:45;967.0;;;25.0;40.4
68873;BME280;55907;50.806;12.882;2023-07-02T11:08:47;967.0;;;24.4;42.4
68873;BME280;55907;50.806;12.882;2023-07-02T11:11:50;967.0;;;24.7;44.2
68873;BME280;55907;50.806;12.882;2023-07-02T11:14:50;967.0;;;25.1;41.8
68873;BME280;55907;50.806;12.882;2023-07-02T11:17:51;967.1;;;24.9;42.1
68873;BME280;55907;50.806;12.882;2023-07-02T11:20:53;967.0;;;24.2;43.2
68873;BME280;55907;50.806;12.882;2023-07-02T11:26:57;967.2;;;23.5;46.3
68873;BME280;55907;50.806;12.882;2023-07-02T11:29:59;967.2;;;23.2;47.4
68873;BME280;55907;50.806;12.882;2023-07-02T11:32:58;967.2;;;23.0;47.3
68873;BME280;55907;50.806;12.882;2023-07-02T11:35:59;967.2;;;22.9;48.7
68873;BME280;55907;50.806;12.882;2023-07-02T11:39:01;967.2;;;22.9;48.6
68873;BME280;55907;50.806;12.882;2023-07-02T11:42:02;967.2;;;23.0;47.2
68873;BME280;55907;50.806;12.882;2023-07-02T11:45:04;967.2;;;23.5;46.0
68873;BME280;55907;50.806;12.882;2023-07-02T11:48:05;967.3;;;24.1;45.1
68873;BME280;55907;50.806;12.882;2023-07-02T11:51:06;967.3;;;24.3;44.5
68873;BME280;55907;50.806;12.882;2023-07-02T11:54:08;967.2;;;24.4;43.0
68873;BME280;55907;50.806;12.882;2023-07-02T12:00:11;967.2;;;24.6;42.4
68873;BME280;55907;50.806;12.882;2023-07-02T12:03:12;967.2;;;25.0;43.5
68873;BME280;55907;50.806;12.882;2023-07-02T12:06:13;967.2;;;25.3;41.1
68873;BME280;55907;50.806;12.882;2023-07-02T12:09:15;967.1;;;25.1;41.0
68873;BME280;55907;50.806;12.882;2023-07-02T12:12:16;967.1;;;25.0;41.2
68873;BME280;55907;50.806;12.882;2023-07-02T12:15:17;967.2;;;24.7;42.7
68873;BME280;55907;50.806;12.882;2023-07-02T12:18:19;967.1;;;24.8;41.6
68873;BME280;55907;50.806;12.882;2023-07-02T12:21:20;967.1;;;24.9;42.3
68873;BME280;55907;50.806;12.882;2023-07-02T12:24:22;967.1;;;24.9;39.4
68873;BME280;55907;50.806;12.882;2023-07-02T12:27:23;967.1;;;24.7;38.2
68873;BME280;55907;50.806;12.882;2023-07-02T12:30:24;967.2;;;24.9;38.9
68873;BME280;55907;50.806;12.882;2023-07-02T12:33:26;967.2;;;24.8;39.0
68873;BME280;55907;50.806;12.882;2023-07-02T12:36:27;967.2;;;24.9;38.8
68873;BME280;55907;50.806;12.882;2023-07-02T12:39:28;967.2;;;24.8;38.8
68873;BME280;55907;50.806;12.882;2023-07-02T12:42:30;967.2;;;24.6;38.0
68873;BME280;55907;50.806;12.882;2023-07-02T12:45:31;967.1;;;24.7;39.9
68873;BME280;55907;50.806;12.882;2023-07-02T12:48:33;967.2;;;24.2;38.3
68873;BME280;55907;50.806;12.882;2023-07-02T12:51:34;967.2;;;24.2;40.2
68873;BME280;55907;50.806;12.882;2023-07-02T12:57:37;967.4;;;23.8;41.2
68873;BME280;55907;50.806;12.882;2023-07-02T13:00:38;967.3;;;23.7;41.8
68873;BME280;55907;50.806;12.882;2023-07-02T13:03:44;967.3;;;23.7;41.8
68873;BME280;55907;50.806;12.882;2023-07-02T13:09:43;967.3;;;24.6;39.1
68873;BME280;55907;50.806;12.882;2023-07-02T13:12:44;967.4;;;25.0;37.8
68873;BME280;55907;50.806;12.882;2023-07-02T13:15:45;967.3;;;25.1;34.9
68873;BME280;55907;50.806;12.882;2023-07-02T13:18:46;967.2;;;25.0;34.4
68873;BME280;55907;50.806;12.882;2023-07-02T13:21:48;967.4;;;25.2;36.5
68873;BME280;55907;50.806;12.882;2023-07-02T13:24:49;967.4;;;25.2;37.1
68873;BME280;55907;50.806;12.882;2023-07-02T13:27:51;967.5;;;25.3;37.1
68873;BME280;55907;50.806;12.882;2023-07-02T13:30:52;967.4;;;25.0;37.4
68873;BME280;55907;50.806;12.882;2023-07-02T13:33:53;967.3;;;25.1;38.3
68873;BME280;55907;50.806;12.882;2023-07-02T13:36:55;967.3;;;24.9;37.6
68873;BME280;55907;50.806;12.882;2023-07-02T13:39:56;967.4;;;24.8;38.1
68873;BME280;55907;50.806;12.882;2023-07-02T13:42:58;967.3;;;24.5;37.5
68873;BME280;55907;50.806;12.882;2023-07-02T13:45:59;967.3;;;24.4;37.7
68873;BME280;55907;50.806;12.882;2023-07-02T13:52:02;967.5;;;24.7;38.6
68873;BME280;55907;50.806;12.882;2023-07-02T13:55:03;967.5;;;24.6;37.5
68873;BME280;55907;50.806;12.882;2023-07-02T13:58:04;967.4;;;24.8;36.0
68873;BME280;55907;50.806;12.882;2023-07-02T14:01:06;967.5;;;24.8;36.7
68873;BME280;55907;50.806;12.882;2023-07-02T14:04:07;967.5;;;24.7;37.2
68873;BME280;55907;50.806;12.882;2023-07-02T14:07:09;967.5;;;25.1;37.4
68873;BME280;55907;50.806;12.882;2023-07-02T14:10:11;967.5;;;25.4;37.5
68873;BME280;55907;50.806;12.882;2023-07-02T14:13:11;967.5;;;25.3;37.1
68873;BME280;55907;50.806;12.882;2023-07-02T14:16:13;967.5;;;25.1;36.0
68873;BME280;55907;50.806;12.882;2023-07-02T14:19:14;967.5;;;24.9;34.4
68873;BME280;55907;50.806;12.882;2023-07-02T14:22:16;967.5;;;24.7;35.2
68873;BME280;55907;50.806;12.882;2023-07-02T14:25:17;967.5;;;24.7;36.4
68873;BME280;55907;50.806;12.882;2023-07-02T14:28:18;967.6;;;24.6;35.1
68873;BME280;55907;50.806;12.882;2023-07-02T14:31:20;967.5;;;24.2;35.0
68873;BME280;55907;50.806;12.882;2023-07-02T14:34:21;967.6;;;24.0;35.9
68873;BME280;55907;50.806;12.882;2023-07-02T14:37:22;967.6;;;24.1;37.0
68873;BME280;55907;50.806;12.882;2023-07-02T14:40:24;967.6;;;24.2;36.9
68873;BME280;55907;50.806;12.882;2023-07-02T14:43:28;967.5;;;24.3;37.0
68873;BME280;55907;50.806;12.882;2023-07-02T14:46:27;967.5;;;24.3;36.7
68873;BME280;55907;50.806;12.882;2023-07-02T14:52:29;967.6;;;24.3;35.6
68873;BME280;55907;50.806;12.882;2023-07-02T14:55:31;967.7;;;24.4;35.4
68873;BME280;55907;50.806;12.882;2023-07-02T14:58:32;967.6;;;24.2;35.5
68873;BME280;55907;50.806;12.882;2023-07-02T15:01:33;967.7;;;24.0;36.0
68873;BME280;55907;50.806;12.882;2023-07-02T15:04:35;967.6;;;23.9;36.2
68873;BME280;55907;50.806;12.882;2023-07-02T15:07:36;967.8;;;23.8;36.3
68873;BME280;55907;50.806;12.882;2023-07-02T15:10:38;967.7;;;24.0;37.2
68873;BME280;55907;50.806;12.882;2023-07-02T15:13:39;967.7;;;24.3;37.7
68873;BME280;55907;50.806;12.882;2023-07-02T15:16:40;967.6;;;24.5;37.3
68873;BME280;55907;50.806;12.882;2023-07-02T15:19:42;967.7;;;24.4;36.7
68873;BME280;55907;50.806;12.882;2023-07-02T15:22:43;967.7;;;23.9;35.8
68873;BME280;55907;50.806;12.882;2023-07-02T15:25:50;967.7;;;23.6;36.3
68873;BME280;55907;50.806;12.882;2023-07-02T15:28:46;967.7;;;23.4;36.7
68873;BME280;55907;50.806;12.882;2023-07-02T15:31:47;967.7;;;23.4;37.9
68873;BME280;55907;50.806;12.882;2023-07-02T15:34:49;967.8;;;23.4;38.2
68873;BME280;55907;50.806;12.882;2023-07-02T15:37:50;967.8;;;23.4;38.6
68873;BME280;55907;50.806;12.882;2023-07-02T15:43:53;967.8;;;23.6;39.4
68873;BME280;55907;50.806;12.882;2023-07-02T15:46:54;967.8;;;23.5;39.1
68873;BME280;55907;50.806;12.882;2023-07-02T15:49:55;967.7;;;23.4;38.3
68873;BME280;55907;50.806;12.882;2023-07-02T15:52:57;967.8;;;23.3;38.7
68873;BME280;55907;50.806;12.882;2023-07-02T15:55:59;967.7;;;23.2;39.1
68873;BME280;55907;50.806;12.882;2023-07-02T15:59:00;967.7;;;23.2;38.6
68873;BME280;55907;50.806;12.882;2023-07-02T16:02:01;967.8;;;23.0;38.5
68873;BME280;55907;50.806;12.882;2023-07-02T16:05:03;967.8;;;23.0;39.3
68873;BME280;55907;50.806;12.882;2023-07-02T16:08:04;967.8;;;22.9;40.0
68873;BME280;55907;50.806;12.882;2023-07-02T16:11:06;967.9;;;22.9;40.9
68873;BME280;55907;50.806;12.882;2023-07-02T16:14:07;967.8;;;22.8;39.9
68873;BME280;55907;50.806;12.882;2023-07-02T16:17:08;967.8;;;22.9;40.2
68873;BME280;55907;50.806;12.882;2023-07-02T16:20:10;967.9;;;23.0;41.6
68873;BME280;55907;50.806;12.882;2023-07-02T16:23:11;967.8;;;22.9;40.8
68873;BME280;55907;50.806;12.882;2023-07-02T16:26:12;967.8;;;23.1;41.0
68873;BME280;55907;50.806;12.882;2023-07-02T16:29:14;967.8;;;23.1;40.5
68873;BME280;55907;50.806;12.882;2023-07-02T16:32:15;967.9;;;23.1;41.0
68873;BME280;55907;50.806;12.882;2023-07-02T16:35:17;967.9;;;23.0;41.2
68873;BME280;55907;50.806;12.882;2023-07-02T16:38:18;967.9;;;23.0;41.6
68873;BME280;55907;50.806;12.882;2023-07-02T16:41:19;967.8;;;23.0;41.7
68873;BME280;55907;50.806;12.882;2023-07-02T16:44:23;967.9;;;23.0;41.7
68873;BME280;55907;50.806;12.882;2023-07-02T16:47:22;967.8;;;23.1;42.0
68873;BME280;55907;50.806;12.882;2023-07-02T16:56:26;967.9;;;23.1;41.9
68873;BME280;55907;50.806;12.882;2023-07-02T16:59:29;968.0;;;23.2;41.9
68873;BME280;55907;50.806;12.882;2023-07-02T17:02:29;967.9;;;23.2;40.7
68873;BME280;55907;50.806;12.882;2023-07-02T17:05:31;967.9;;;23.1;41.4
68873;BME280;55907;50.806;12.882;2023-07-02T17:08:34;968.0;;;23.0;42.1
68873;BME280;55907;50.806;12.882;2023-07-02T17:11:33;968.0;;;22.9;42.4
68873;BME280;55907;50.806;12.882;2023-07-02T17:14:36;968.0;;;22.8;42.8
68873;BME280;55907;50.806;12.882;2023-07-02T17:17:36;968.0;;;22.6;42.8
68873;BME280;55907;50.806;12.882;2023-07-02T17:20:37;968.0;;;22.5;42.8
68873;BME280;55907;50.806;12.882;2023-07-02T17:23:39;968.0;;;22.4;43.4
68873;BME280;55907;50.806;12.882;2023-07-02T17:26:40;968.0;;;22.3;43.7
68873;BME280;55907;50.806;12.882;2023-07-02T17:29:47;968.1;;;22.3;43.8
68873;BME280;55907;50.806;12.882;2023-07-02T17:32:43;968.0;;;22.3;44.1
68873;BME280;55907;50.806;12.882;2023-07-02T17:35:44;968.1;;;22.3;44.3
68873;BME280;55907;50.806;12.882;2023-07-02T17:38:46;968.0;;;22.2;44.4
68873;BME280;55907;50.806;12.882;2023-07-02T17:41:49;968.0;;;22.3;44.6
68873;BME280;55907;50.806;12.882;2023-07-02T17:44:49;968.0;;;22.2;45.1
68873;BME280;55907;50.806;12.882;2023-07-02T17:47:50;968.0;;;21.9;44.6